Time;durP1;ratioP1;P1;durP2;ratioP2;P2;SDS_P1;SDS_P2;PMS_P1;PMS_P2;Temp;Humidity;BMP_temperature;BMP_pressure;BME280_temperature;BME280_humidity;BME280_pressure;Samples;Min_cycle;Max_cycle;Signal;HPM_P1;HPM_P2
2022/11/16 00:01:01;;;;;;;1999.90;999.90;;;9.50;99.90;;;;;;5035106;28;20501;-69
2022/11/16 00:03:27;;;;;;;1999.90;999.90;;;9.60;99.90;;;;;;5037522;28;20462;-69
2022/11/16 00:05:58;;;;;;;1999.90;999.90;;;9.60;99.90;;;;;;5034284;28;20462;-69
2022/11/16 00:08:26;;;;;;;1999.90;999.90;;;9.60;99.90;;;;;;5033098;28;20463;-71
2022/11/16 00:10:52;;;;;;;1999.90;999.90;;;9.60;99.90;;;;;;5035765;28;20478;-69
2022/11/16 00:13:20;;;;;;;1999.90;999.90;;;9.20;99.90;;;;;;5034062;28;20482;-72
2022/11/16 00:15:55;;;;;;;1999.90;999.90;;;9.50;99.90;;;;;;5034720;28;20482;-68
2022/11/16 00:18:23;;;;;;;1999.90;999.90;;;9.50;99.90;;;;;;5032290;28;20459;-70
2022/11/16 00:20:50;;;;;;;1999.90;999.90;;;9.40;99.90;;;;;;5034923;28;21001;-70
2022/11/16 00:23:17;;;;;;;1999.90;999.90;;;9.50;99.90;;;;;;5034708;28;20463;-69
2022/11/16 00:25:44;;;;;;;1999.90;999.90;;;9.70;99.90;;;;;;5032140;28;20970;-71
2022/11/16 00:28:11;;;;;;;1999.90;999.90;;;9.50;99.90;;;;;;5032594;28;20851;-70
2022/11/16 00:30:38;;;;;;;1999.90;999.90;;;9.40;99.90;;;;;;5034513;28;20517;-70
2022/11/16 00:33:07;;;;;;;1999.90;999.90;;;9.40;99.90;;;;;;5033511;28;20463;-70
2022/11/16 00:35:39;;;;;;;1999.90;999.90;;;9.40;99.90;;;;;;5033471;28;20839;-67
2022/11/16 00:38:06;;;;;;;1999.90;999.90;;;9.40;99.90;;;;;;5036268;28;20467;-68
2022/11/16 00:40:33;;;;;;;1999.90;999.90;;;9.40;99.90;;;;;;5032846;28;20482;-70
2022/11/16 00:43:00;;;;;;;1999.90;999.90;;;9.30;99.90;;;;;;5033919;28;20463;-68
2022/11/16 00:45:27;;;;;;;1999.90;999.90;;;9.40;99.90;;;;;;5033047;28;20459;-70
2022/11/16 00:47:54;;;;;;;1999.90;999.90;;;9.40;99.90;;;;;;5036037;28;20454;-69
2022/11/16 00:50:20;;;;;;;1999.90;999.90;;;9.30;99.90;;;;;;5031657;28;21006;-69
2022/11/16 00:52:48;;;;;;;1999.90;999.90;;;9.30;99.90;;;;;;5034771;28;20458;-69
2022/11/16 00:55:15;;;;;;;1999.90;999.90;;;9.40;99.90;;;;;;5031079;28;20489;-67
2022/11/16 00:57:42;;;;;;;1999.90;999.90;;;9.40;99.90;;;;;;5037559;28;21148;-69
2022/11/16 01:00:11;;;;;;;1999.90;999.90;;;9.40;99.90;;;;;;5032192;28;20474;-69
2022/11/16 01:02:39;;;;;;;1999.90;999.90;;;9.40;99.90;;;;;;5033123;28;20484;-69
2022/11/16 01:05:08;;;;;;;1999.90;999.90;;;9.40;99.90;;;;;;5032397;28;20462;-70
2022/11/16 01:07:35;;;;;;;1999.90;999.90;;;9.40;99.90;;;;;;5035130;28;21219;-70
2022/11/16 01:10:05;;;;;;;1999.90;999.90;;;9.20;99.90;;;;;;5032557;28;20506;-69
2022/11/16 01:12:30;;;;;;;1999.90;999.90;;;9.30;99.90;;;;;;5032114;28;20477;-70
2022/11/16 01:14:57;;;;;;;1999.90;999.90;;;9.20;99.90;;;;;;5035480;28;20450;-69
2022/11/16 01:17:24;;;;;;;1999.90;999.90;;;9.20;99.90;;;;;;5033475;28;20485;-71
2022/11/16 01:19:51;;;;;;;1999.90;999.90;;;9.20;99.90;;;;;;5032412;28;20465;-71
2022/11/16 01:22:18;;;;;;;1999.90;999.90;;;9.30;99.90;;;;;;5033718;28;20470;-70
2022/11/16 01:24:46;;;;;;;1999.90;999.90;;;9.20;99.90;;;;;;5035095;28;20462;-70
2022/11/16 01:27:14;;;;;;;1999.90;999.90;;;9.20;99.90;;;;;;5034473;28;20458;-68
2022/11/16 01:29:41;;;;;;;1999.90;999.90;;;9.20;99.90;;;;;;5034271;28;20485;-69
2022/11/16 01:32:08;;;;;;;1999.90;999.90;;;9.20;99.90;;;;;;5033473;28;20496;-70
2022/11/16 01:34:35;;;;;;;1999.90;999.90;;;9.30;99.90;;;;;;5032656;28;21167;-69
2022/11/16 01:37:02;;;;;;;1999.90;999.90;;;9.20;99.90;;;;;;5029597;28;20493;-70
2022/11/16 01:39:28;;;;;;;1999.90;999.90;;;9.10;99.90;;;;;;5034277;28;20954;-69
2022/11/16 01:41:55;;;;;;;1999.90;999.90;;;9.10;99.90;;;;;;5034349;28;20489;-71
2022/11/16 01:45:08;;;;;;;1999.90;999.90;;;9.10;99.90;;;;;;5032227;28;20466;-67
2022/11/16 01:47:36;;;;;;;1999.90;999.90;;;9.00;99.90;;;;;;5033015;28;20458;-68
2022/11/16 01:50:08;;;;;;;1999.90;999.90;;;8.90;99.90;;;;;;5034101;28;20492;-70
2022/11/16 01:52:39;;;;;;;1999.90;999.90;;;9.00;99.90;;;;;;5033629;28;20842;-70
2022/11/16 01:55:06;;;;;;;1999.90;999.90;;;9.00;99.90;;;;;;5030708;28;20471;-70
2022/11/16 01:57:36;;;;;;;1999.90;999.90;;;9.00;99.90;;;;;;5035041;28;20463;-69
2022/11/16 02:00:07;;;;;;;1999.90;999.90;;;9.10;99.90;;;;;;5031897;28;21027;-70
2022/11/16 02:02:34;;;;;;;1999.90;999.90;;;9.10;99.90;;;;;;5033221;28;20486;-70
2022/11/16 02:05:03;;;;;;;1999.90;999.90;;;9.20;99.90;;;;;;5032283;28;20469;-69
2022/11/16 02:10:42;;;;;;;1999.90;999.90;;;9.20;99.90;;;;;;5033332;28;20472;-68
2022/11/16 02:13:21;;;;;;;1999.90;999.90;;;9.50;99.90;;;;;;5032240;28;20486;-68
2022/11/16 02:15:55;;;;;;;1999.90;999.90;;;9.00;99.90;;;;;;5030520;28;20492;-69
2022/11/16 02:18:29;;;;;;;1999.90;999.90;;;9.00;99.90;;;;;;5034182;28;20478;-70
2022/11/16 02:21:22;;;;;;;1999.90;999.90;;;9.00;99.90;;;;;;5032205;28;20485;-70
2022/11/16 02:24:16;;;;;;;1999.90;999.90;;;9.00;99.90;;;;;;5036340;28;20470;-70
2022/11/16 02:27:10;;;;;;;1999.90;999.90;;;9.10;99.90;;;;;;5032965;28;20462;-64
2022/11/16 02:29:42;;;;;;;1999.90;999.90;;;9.00;99.90;;;;;;5033141;28;20474;-67
2022/11/16 02:32:14;;;;;;;1999.90;999.90;;;9.00;99.90;;;;;;5032608;28;20478;-67
2022/11/16 02:34:44;;;;;;;1999.90;999.90;;;8.90;99.90;;;;;;5040537;28;20469;-67
2022/11/16 02:37:14;;;;;;;1999.90;999.90;;;8.80;99.90;;;;;;5048144;28;20493;-68
2022/11/16 02:39:44;;;;;;;1999.90;999.90;;;8.80;99.90;;;;;;5047016;28;20520;-67
2022/11/16 02:42:17;;;;;;;1999.90;999.90;;;8.80;99.90;;;;;;5046125;28;20958;-66
2022/11/16 02:44:48;;;;;;;1999.90;999.90;;;8.70;99.90;;;;;;5034392;28;20874;-66
2022/11/16 02:47:20;;;;;;;1999.90;999.90;;;9.00;99.90;;;;;;5031094;28;20458;-68
2022/11/16 02:49:52;;;;;;;1999.90;999.90;;;8.70;99.90;;;;;;5031410;28;20462;-68
2022/11/16 02:52:21;;;;;;;1999.90;999.90;;;8.80;99.90;;;;;;5031173;28;20455;-68
2022/11/16 02:54:48;;;;;;;1999.90;999.90;;;8.60;99.90;;;;;;5036115;28;20459;-66
2022/11/16 02:57:38;;;;;;;1999.90;999.90;;;8.60;99.90;;;;;;5046665;28;20489;-67
2022/11/16 03:00:10;;;;;;;1999.90;999.90;;;8.60;99.90;;;;;;5045160;28;20832;-66
2022/11/16 03:02:45;;;;;;;1999.90;999.90;;;8.60;99.90;;;;;;5049350;28;20462;-67
2022/11/16 03:05:17;;;;;;;1999.90;999.90;;;8.60;99.90;;;;;;5047643;28;20486;-67
2022/11/16 03:07:46;;;;;;;1999.90;999.90;;;8.50;99.90;;;;;;5048195;28;20985;-67
2022/11/16 03:11:58;;;;;;;1999.90;999.90;;;8.50;99.90;;;;;;5031102;28;21500;-66
2022/11/16 03:13:04;;;;;;;1999.90;999.90;;;8.50;99.90;;;;;;5033155;28;20455;-67
2022/11/16 03:15:34;;;;;;;1999.90;999.90;;;8.40;99.90;;;;;;5032395;28;20481;-67
2022/11/16 03:18:00;;;;;;;1999.90;999.90;;;8.40;99.90;;;;;;5031068;28;20474;-66
2022/11/16 03:20:32;;;;;;;1999.90;999.90;;;8.40;99.90;;;;;;5032482;28;20505;-67
2022/11/16 03:23:00;;;;;;;1999.90;999.90;;;8.30;99.90;;;;;;5031227;28;20465;-68
2022/11/16 03:25:31;;;;;;;1999.90;999.90;;;8.40;99.90;;;;;;5032684;28;21009;-67
2022/11/16 03:28:06;;;;;;;1999.90;999.90;;;8.40;99.90;;;;;;5031919;28;20876;-69
2022/11/16 03:30:40;;;;;;;1999.90;999.90;;;8.40;99.90;;;;;;5030746;28;21101;-69
2022/11/16 03:33:14;;;;;;;1999.90;999.90;;;8.50;99.90;;;;;;5031811;28;20462;-68
2022/11/16 03:35:47;;;;;;;1999.90;999.90;;;8.80;99.90;;;;;;5030551;28;20986;-67
2022/11/16 03:38:17;;;;;;;1999.90;999.90;;;8.60;99.90;;;;;;5033656;28;20459;-70
2022/11/16 03:40:46;;;;;;;1999.90;999.90;;;8.50;99.90;;;;;;5032299;28;20504;-68
2022/11/16 03:43:14;;;;;;;1999.90;999.90;;;8.50;99.90;;;;;;5030037;28;20471;-66
2022/11/16 03:45:44;;;;;;;1999.90;999.90;;;8.40;99.90;;;;;;5034548;28;20461;-67
2022/11/16 03:48:12;;;;;;;1999.90;999.90;;;8.50;99.90;;;;;;5031169;28;20832;-66
2022/11/16 03:50:39;;;;;;;1999.90;999.90;;;8.50;99.90;;;;;;5030155;28;20550;-66
2022/11/16 03:53:05;;;;;;;1999.90;999.90;;;8.50;99.90;;;;;;5032086;28;20469;-67
2022/11/16 03:55:32;;;;;;;1999.90;999.90;;;8.50;99.90;;;;;;5031953;28;20462;-69
2022/11/16 03:57:59;;;;;;;1999.90;999.90;;;8.40;99.90;;;;;;5032800;28;20470;-70
2022/11/16 04:00:26;;;;;;;1999.90;999.90;;;8.40;99.90;;;;;;5035290;28;20478;-70
2022/11/16 04:02:54;;;;;;;1999.90;999.90;;;8.40;99.90;;;;;;5034435;28;20465;-68
2022/11/16 04:24:41;;;;;;;1999.90;999.90;;;8.20;99.90;;;;;;5064409;28;20442;-67
2022/11/16 04:29:59;;;;;;;1999.90;999.90;;;8.10;99.90;;;;;;5037234;28;21001;-65
2022/11/16 04:37:57;;;;;;;1999.90;999.90;;;8.10;99.90;;;;;;5037837;28;20502;-67
2022/11/16 04:40:28;;;;;;;1999.90;999.90;;;7.90;99.90;;;;;;5033252;28;20483;-67
2022/11/16 04:42:56;;;;;;;1999.90;999.90;;;8.00;99.90;;;;;;5048627;28;20474;-67
2022/11/16 04:48:09;;;;;;;1999.90;999.90;;;7.90;99.90;;;;;;5050293;28;20458;-66
2022/11/16 04:50:37;;;;;;;1999.90;999.90;;;7.90;99.90;;;;;;5050638;28;20478;-66
2022/11/16 04:53:05;;;;;;;1999.90;999.90;;;7.90;99.90;;;;;;5048637;28;20466;-67
2022/11/16 04:55:32;;;;;;;1999.90;999.90;;;7.90;99.90;;;;;;5044162;28;20542;-67
2022/11/16 04:58:00;;;;;;;1999.90;999.90;;;7.80;99.90;;;;;;5053304;28;20486;-67
2022/11/16 05:00:27;;;;;;;1999.90;999.90;;;7.80;99.90;;;;;;5044471;28;21006;-67
2022/11/16 05:02:54;;;;;;;1999.90;999.90;;;7.80;99.90;;;;;;5047470;28;20454;-67
2022/11/16 05:05:21;;;;;;;1999.90;999.90;;;7.80;99.90;;;;;;5048831;28;20517;-67
2022/11/16 05:07:49;;;;;;;1999.90;999.90;;;7.90;99.90;;;;;;5049991;28;20454;-66
2022/11/16 05:10:16;;;;;;;1999.90;999.90;;;7.70;99.90;;;;;;5047578;28;20557;-67
2022/11/16 05:12:42;;;;;;;1999.90;999.90;;;7.70;99.90;;;;;;5051030;28;20464;-67
2022/11/16 05:15:10;;;;;;;1999.90;999.90;;;7.70;99.90;;;;;;5049453;28;20462;-67
2022/11/16 05:17:37;;;;;;;1999.90;999.90;;;7.60;99.90;;;;;;5050914;28;21021;-66
2022/11/16 05:22:54;;;;;;;1999.90;999.90;;;7.60;99.90;;;;;;5045820;28;20437;-66
2022/11/16 05:25:21;;;;;;;1999.90;999.90;;;7.60;99.90;;;;;;5049401;28;20458;-67
2022/11/16 05:27:48;;;;;;;1999.90;999.90;;;7.60;99.90;;;;;;5045100;28;20458;-67
2022/11/16 05:30:15;;;;;;;1999.90;999.90;;;7.50;99.90;;;;;;5047914;28;20982;-66
2022/11/16 05:32:42;;;;;;;1999.90;999.90;;;7.60;99.90;;;;;;5049973;28;20458;-67
2022/11/16 05:35:09;;;;;;;1999.90;999.90;;;7.60;99.90;;;;;;5047491;28;20469;-66
2022/11/16 05:37:36;;;;;;;1999.90;999.90;;;7.60;99.90;;;;;;5043188;28;20953;-66
2022/11/16 05:40:05;;;;;;;1999.90;999.90;;;7.60;99.90;;;;;;5049413;28;21036;-66
2022/11/16 05:42:31;;;;;;;1999.90;999.90;;;7.50;99.90;;;;;;5050166;28;20837;-66
2022/11/16 05:44:58;;;;;;;1999.90;999.90;;;7.50;99.90;;;;;;5048983;28;20458;-66
2022/11/16 05:47:25;;;;;;;1999.90;999.90;;;7.50;99.90;;;;;;5048272;28;20489;-66
2022/11/16 05:49:52;;;;;;;1999.90;999.90;;;7.50;99.90;;;;;;5048469;28;20462;-66
2022/11/16 05:52:18;;;;;;;1999.90;999.90;;;7.40;99.90;;;;;;5048778;28;20465;-67
2022/11/16 05:54:45;;;;;;;1999.90;999.90;;;7.50;99.90;;;;;;5049801;28;20459;-66
2022/11/16 05:57:14;;;;;;;1999.90;999.90;;;7.50;99.90;;;;;;5047628;28;20486;-66
2022/11/16 05:59:41;;;;;;;1999.90;999.90;;;7.40;99.90;;;;;;5050254;28;20493;-66
2022/11/16 06:02:08;;;;;;;1999.90;999.90;;;7.40;99.90;;;;;;5047285;28;20470;-66
2022/11/16 06:04:34;;;;;;;1999.90;999.90;;;7.30;99.90;;;;;;5048104;28;20970;-66
2022/11/16 06:07:01;;;;;;;1999.90;999.90;;;7.30;99.90;;;;;;5049946;28;20950;-65
2022/11/16 06:09:28;;;;;;;1999.90;999.90;;;7.30;99.90;;;;;;5047803;28;20469;-67
2022/11/16 06:11:55;;;;;;;1999.90;999.90;;;7.30;99.90;;;;;;5049120;28;20489;-63
2022/11/16 06:14:23;;;;;;;1999.90;999.90;;;7.20;99.90;;;;;;5048648;28;20465;-65
2022/11/16 06:16:50;;;;;;;1999.90;999.90;;;7.10;99.90;;;;;;5043193;28;20474;-65
2022/11/16 06:19:16;;;;;;;1999.90;999.90;;;7.10;99.90;;;;;;5045318;28;20462;-66
2022/11/16 06:21:43;;;;;;;1999.90;999.90;;;7.10;99.90;;;;;;5048637;28;20485;-67
2022/11/16 06:24:10;;;;;;;1999.90;999.90;;;7.20;99.90;;;;;;5048625;28;20477;-66
2022/11/16 06:26:37;;;;;;;1999.90;999.90;;;7.20;99.90;;;;;;5048781;28;20459;-66
2022/11/16 06:29:04;;;;;;;1999.90;999.90;;;7.20;99.90;;;;;;5049356;28;20466;-67
2022/11/16 06:31:32;;;;;;;1999.90;999.90;;;7.20;99.90;;;;;;5041225;28;20491;-65
2022/11/16 06:33:58;;;;;;;1999.90;999.90;;;7.10;99.90;;;;;;5047771;28;20841;-65
2022/11/16 06:36:25;;;;;;;1999.90;999.90;;;7.10;99.90;;;;;;5048246;28;20977;-65
2022/11/16 06:38:52;;;;;;;1999.90;999.90;;;7.10;99.90;;;;;;5049146;28;20486;-66
2022/11/16 06:41:19;;;;;;;1999.90;999.90;;;7.10;99.90;;;;;;5049099;28;20489;-66
2022/11/16 06:43:46;;;;;;;1999.90;999.90;;;7.10;99.90;;;;;;5048109;28;20493;-66
2022/11/16 06:46:13;;;;;;;1999.90;999.90;;;7.10;99.90;;;;;;5043732;28;20504;-67
2022/11/16 06:48:41;;;;;;;1999.90;999.90;;;7.10;99.90;;;;;;5041805;28;20464;-66
2022/11/16 06:51:08;;;;;;;1999.90;999.90;;;7.10;99.90;;;;;;5046629;28;20493;-66
2022/11/16 06:53:34;;;;;;;1999.90;999.90;;;7.00;99.90;;;;;;5047962;28;20462;-65
2022/11/16 06:56:02;;;;;;;1999.90;999.90;;;7.00;99.90;;;;;;5046131;28;20461;-65
2022/11/16 06:58:30;;;;;;;1999.90;999.90;;;7.00;99.90;;;;;;5045874;28;20490;-66
2022/11/16 07:00:57;;;;;;;1999.90;999.90;;;7.00;99.90;;;;;;5048925;28;21111;-66
2022/11/16 07:03:24;;;;;;;1999.90;999.90;;;7.00;99.90;;;;;;5048548;28;20485;-66
2022/11/16 07:05:52;;;;;;;1999.90;999.90;;;7.00;99.90;;;;;;5048652;28;20833;-66
2022/11/16 07:08:18;;;;;;;1999.90;999.90;;;7.00;99.90;;;;;;5042689;28;20463;-67
2022/11/16 07:10:45;;;;;;;1999.90;999.90;;;6.90;99.90;;;;;;5046476;28;20478;-66
2022/11/16 07:13:12;;;;;;;1999.90;999.90;;;6.80;99.90;;;;;;5043185;28;20465;-67
2022/11/16 07:15:39;;;;;;;1999.90;999.90;;;6.80;99.90;;;;;;5044013;28;20470;-66
2022/11/16 07:18:06;;;;;;;1999.90;999.90;;;6.70;99.90;;;;;;5049372;28;20490;-65
2022/11/16 07:20:33;;;;;;;1999.90;999.90;;;6.70;99.90;;;;;;5044502;28;21037;-65
2022/11/16 07:23:04;;;;;;;1999.90;999.90;;;6.70;99.90;;;;;;5048677;28;20462;-66
2022/11/16 07:25:32;;;;;;;1999.90;999.90;;;6.70;99.90;;;;;;5047794;28;20470;-65
2022/11/16 07:27:59;;;;;;;1999.90;999.90;;;6.70;99.90;;;;;;5048602;28;20458;-65
2022/11/16 07:30:26;;;;;;;1999.90;999.90;;;6.70;99.90;;;;;;5047216;28;21089;-64
2022/11/16 07:32:57;;;;;;;1999.90;999.90;;;6.70;99.90;;;;;;5045254;28;20465;-66
2022/11/16 07:35:24;;;;;;;1999.90;999.90;;;6.60;99.90;;;;;;5050821;28;20995;-65
2022/11/16 07:37:51;;;;;;;1999.90;999.90;;;6.70;99.90;;;;;;5051462;28;22437;-65
2022/11/16 07:40:19;;;;;;;1999.90;999.90;;;6.90;99.90;;;;;;5051436;28;20482;-65
2022/11/16 07:42:46;;;;;;;1999.90;999.90;;;6.60;99.90;;;;;;5046407;28;20457;-65
2022/11/16 07:45:13;;;;;;;1999.90;999.90;;;6.80;99.90;;;;;;5054306;28;20454;-66
2022/11/16 07:47:40;;;;;;;1999.90;999.90;;;6.50;99.90;;;;;;5053606;28;20451;-66
2022/11/16 07:50:09;;;;;;;1999.90;999.90;;;6.60;99.90;;;;;;5052757;28;20485;-66
2022/11/16 07:52:36;;;;;;;1999.90;999.90;;;6.60;99.90;;;;;;5054775;28;20438;-67
2022/11/16 07:55:04;;;;;;;1999.90;999.90;;;6.60;99.90;;;;;;5053239;28;20449;-65
2022/11/16 07:57:32;;;;;;;1999.90;999.90;;;6.60;99.90;;;;;;5054874;28;20481;-67
2022/11/16 07:59:59;;;;;;;1999.90;999.90;;;6.60;99.90;;;;;;5052251;28;20490;-67
2022/11/16 08:02:26;;;;;;;1999.90;999.90;;;6.60;99.90;;;;;;5046601;28;20445;-63
2022/11/16 08:04:53;;;;;;;1999.90;999.90;;;6.60;99.90;;;;;;5051291;28;20462;-66
2022/11/16 08:07:20;;;;;;;1999.90;999.90;;;6.60;99.90;;;;;;5054590;28;20442;-66
2022/11/16 08:09:47;;;;;;;1999.90;999.90;;;6.60;99.90;;;;;;5054665;28;20449;-66
2022/11/16 08:12:13;;;;;;;1999.90;999.90;;;6.70;99.90;;;;;;5053521;28;20442;-66
2022/11/16 08:14:42;;;;;;;1999.90;999.90;;;6.70;99.90;;;;;;5051639;28;20462;-66
2022/11/16 08:17:08;;;;;;;1999.90;999.90;;;7.00;99.90;;;;;;5054159;28;20993;-66
2022/11/16 08:19:36;;;;;;;1999.90;999.90;;;6.70;99.90;;;;;;5054224;28;20453;-66
2022/11/16 08:22:03;;;;;;;1999.90;999.90;;;6.70;99.90;;;;;;5054358;28;20447;-66
2022/11/16 08:24:30;;;;;;;1999.90;999.90;;;6.70;99.90;;;;;;5053716;28;20508;-66
2022/11/16 08:26:57;;;;;;;1999.90;999.90;;;6.70;99.90;;;;;;5053280;28;20472;-66
2022/11/16 08:29:24;;;;;;;1999.90;999.90;;;6.60;99.90;;;;;;5053838;28;20458;-66
2022/11/16 08:31:52;;;;;;;1999.90;999.90;;;6.70;99.90;;;;;;5052878;28;20855;-67
2022/11/16 08:34:20;;;;;;;1999.90;999.90;;;6.70;99.90;;;;;;5053342;28;20942;-66
2022/11/16 08:36:47;;;;;;;1999.90;999.90;;;6.70;99.90;;;;;;5054722;28;20466;-68
2022/11/16 08:39:13;;;;;;;1999.90;999.90;;;6.70;99.90;;;;;;5053822;28;20507;-68
2022/11/16 08:41:41;;;;;;;1999.90;999.90;;;6.70;99.90;;;;;;5052752;28;20482;-68
2022/11/16 08:44:08;;;;;;;1999.90;999.90;;;6.80;99.90;;;;;;5053752;28;20453;-68
2022/11/16 08:46:34;;;;;;;1999.90;999.90;;;7.00;99.90;;;;;;5053179;28;20453;-67
2022/11/16 08:49:02;;;;;;;1999.90;999.90;;;6.70;99.90;;;;;;5053677;28;20533;-68
2022/11/16 08:51:29;;;;;;;1999.90;999.90;;;6.70;99.90;;;;;;5053660;28;20836;-68
2022/11/16 08:53:57;;;;;;;1999.90;999.90;;;6.60;99.90;;;;;;5053731;28;20453;-67
2022/11/16 08:56:25;;;;;;;1999.90;999.90;;;6.60;99.90;;;;;;5050936;28;20471;-68
2022/11/16 08:58:53;;;;;;;1999.90;999.90;;;6.60;99.90;;;;;;5053756;28;20486;-67
2022/11/16 09:01:23;;;;;;;1999.90;999.90;;;6.60;99.90;;;;;;5053567;28;20846;-68
2022/11/16 09:03:50;;;;;;;1999.90;999.90;;;6.70;99.90;;;;;;5053667;28;20446;-67
2022/11/16 09:06:18;;;;;;;1999.90;999.90;;;6.70;99.90;;;;;;5052781;28;20481;-67
2022/11/16 09:08:46;;;;;;;1999.90;999.90;;;6.70;99.90;;;;;;5053672;28;20442;-68
2022/11/16 09:11:15;;;;;;;1999.90;999.90;;;6.70;99.90;;;;;;5052245;28;21005;-67
2022/11/16 09:13:42;;;;;;;1999.90;999.90;;;6.60;99.90;;;;;;5053271;28;20452;-68
2022/11/16 09:16:09;;;;;;;1999.90;999.90;;;6.70;99.90;;;;;;5049360;28;20463;-67
2022/11/16 09:18:37;;;;;;;1999.90;999.90;;;6.70;99.90;;;;;;5050080;28;20474;-68
2022/11/16 09:21:04;;;;;;;1999.90;999.90;;;6.70;99.90;;;;;;5052400;28;20470;-67
2022/11/16 09:23:32;;;;;;;1999.90;999.90;;;6.80;99.90;;;;;;5052477;28;20470;-67
2022/11/16 09:26:02;;;;;;;1999.90;999.90;;;6.90;99.90;;;;;;5052218;28;20438;-68
2022/11/16 09:28:29;;;;;;;1999.90;999.90;;;6.80;99.90;;;;;;5032863;28;20534;-68
2022/11/16 09:31:00;;;;;;;1999.90;999.90;;;6.80;99.90;;;;;;5033020;28;20905;-68
2022/11/16 09:33:28;;;;;;;1999.90;999.90;;;6.80;99.90;;;;;;5033161;28;20504;-67
2022/11/16 09:35:55;;;;;;;1999.90;999.90;;;6.80;99.90;;;;;;5032296;28;20443;-68
2022/11/16 09:38:22;;;;;;;1999.90;999.90;;;6.90;99.90;;;;;;5047232;28;20486;-68
2022/11/16 09:40:50;;;;;;;1999.90;999.90;;;6.90;99.90;;;;;;5052552;28;20846;-68
2022/11/16 09:43:28;;;;;;;1999.90;999.90;;;7.10;99.90;;;;;;5052644;28;20446;-68
2022/11/16 09:46:04;;;;;;;1999.90;999.90;;;7.00;99.90;;;;;;5052295;28;20434;-68
2022/11/16 09:48:35;;;;;;;1999.90;999.90;;;7.00;99.90;;;;;;5052565;28;20442;-68
2022/11/16 09:51:07;;;;;;;1999.90;999.90;;;6.90;99.90;;;;;;5051171;28;20486;-67
2022/11/16 09:53:39;;;;;;;1999.90;999.90;;;7.00;99.90;;;;;;5052457;28;20434;-68
2022/11/16 09:56:11;;;;;;;1999.90;999.90;;;7.00;99.90;;;;;;5050467;28;20426;-67
2022/11/16 09:58:42;;;;;;;1999.90;999.90;;;7.10;99.90;;;;;;5052422;28;20577;-68
2022/11/16 10:01:20;;;;;;;1999.90;999.90;;;7.20;99.90;;;;;;5052090;28;20831;-68
2022/11/16 10:03:51;;;;;;;1999.90;999.90;;;7.20;99.90;;;;;;5052647;28;20449;-67
2022/11/16 10:06:22;;;;;;;1999.90;999.90;;;7.20;99.90;;;;;;5050592;28;20466;-68
2022/11/16 10:08:50;;;;;;;1999.90;999.90;;;7.20;99.90;;;;;;5052129;28;20454;-67
2022/11/16 10:11:37;;;;;;;1999.90;999.90;;;7.30;99.90;;;;;;5052448;28;20466;-67
2022/11/16 10:14:20;;;;;;;1999.90;999.90;;;7.30;99.90;;;;;;5052419;28;20458;-67
2022/11/16 10:16:56;;;;;;;1999.90;999.90;;;7.40;99.90;;;;;;5051253;28;20477;-67
2022/11/16 10:19:30;;;;;;;1999.90;999.90;;;7.40;99.90;;;;;;5051633;28;20482;-68
2022/11/16 10:22:07;;;;;;;1999.90;999.90;;;7.40;99.90;;;;;;5049419;28;20474;-67
2022/11/16 10:24:52;;;;;;;1999.90;999.90;;;7.40;99.90;;;;;;5043361;28;20835;-67
2022/11/16 10:27:36;;;;;;;1999.90;999.90;;;7.40;99.90;;;;;;5047557;28;20451;-67
2022/11/16 10:30:09;;;;;;;1999.90;999.90;;;7.40;99.90;;;;;;5048570;28;20585;-67
2022/11/16 10:32:39;;;;;;;1999.90;999.90;;;7.50;99.90;;;;;;5045409;28;20470;-67
2022/11/16 10:35:15;;;;;;;1999.90;999.90;;;7.50;99.90;;;;;;5043438;28;20484;-67
2022/11/16 10:37:47;;;;;;;1999.90;999.90;;;7.40;99.90;;;;;;5048281;28;20478;-67
2022/11/16 10:40:19;;;;;;;1999.90;999.90;;;7.40;99.90;;;;;;5048568;28;20493;-67
2022/11/16 10:42:53;;;;;;;1999.90;999.90;;;7.40;99.90;;;;;;5045163;28;20465;-68
2022/11/16 10:45:24;;;;;;;1999.90;999.90;;;7.40;99.90;;;;;;5047616;28;20998;-68
2022/11/16 10:47:57;;;;;;;1999.90;999.90;;;7.50;99.90;;;;;;5049609;28;20454;-68
2022/11/16 10:50:34;;;;;;;1999.90;999.90;;;7.50;99.90;;;;;;5048790;28;21032;-68
2022/11/16 10:53:01;;;;;;;1999.90;999.90;;;7.50;99.90;;;;;;5045613;28;20462;-67
2022/11/16 10:55:28;;;;;;;1999.90;999.90;;;7.50;99.90;;;;;;5046390;28;20471;-68
2022/11/16 10:57:59;;;;;;;1999.90;999.90;;;7.50;99.90;;;;;;5047553;28;20489;-67
2022/11/16 11:00:38;;;;;;;1999.90;999.90;;;7.40;99.90;;;;;;5046319;28;20489;-66
2022/11/16 11:03:05;;;;;;;1999.90;999.90;;;7.60;99.90;;;;;;5040486;28;20465;-67
2022/11/16 11:05:33;;;;;;;1999.90;999.90;;;7.60;99.90;;;;;;5048151;28;20942;-67
2022/11/16 11:08:02;;;;;;;1999.90;999.90;;;7.60;99.90;;;;;;5049326;28;20500;-67
2022/11/16 11:10:30;;;;;;;1999.90;999.90;;;7.50;99.90;;;;;;5051886;28;20504;-68
2022/11/16 11:13:25;;;;;;;1999.90;999.90;;;7.50;99.90;;;;;;5048726;28;20844;-67
2022/11/16 11:15:52;;;;;;;1999.90;999.90;;;7.40;99.90;;;;;;5044070;28;20969;-68
2022/11/16 11:18:28;;;;;;;1999.90;999.90;;;7.30;99.90;;;;;;5051934;28;20551;-67
2022/11/16 11:21:06;;;;;;;1999.90;999.90;;;7.40;99.90;;;;;;5053612;28;20568;-68
2022/11/16 11:23:42;;;;;;;1999.90;999.90;;;7.40;99.90;;;;;;5052131;28;20499;-68
2022/11/16 11:26:28;;;;;;;1999.90;999.90;;;7.30;99.90;;;;;;5051588;28;20455;-67
2022/11/16 11:28:59;;;;;;;1999.90;999.90;;;7.30;99.90;;;;;;5052142;28;20450;-67
2022/11/16 11:31:33;;;;;;;1999.90;999.90;;;7.30;99.90;;;;;;5049334;28;20496;-67
2022/11/16 11:34:07;;;;;;;1999.90;999.90;;;7.40;99.90;;;;;;5054244;28;20551;-67
2022/11/16 11:36:37;;;;;;;1999.90;999.90;;;7.40;99.90;;;;;;5045171;28;20462;-66
2022/11/16 11:39:06;;;;;;;1999.90;999.90;;;7.30;99.90;;;;;;5055016;28;21252;-67
2022/11/16 11:41:36;;;;;;;1999.90;999.90;;;7.30;99.90;;;;;;5055209;28;20472;-68
2022/11/16 11:44:05;;;;;;;1999.90;999.90;;;7.30;99.90;;;;;;5051358;28;20464;-67
2022/11/16 11:46:37;;;;;;;1999.90;999.90;;;7.40;99.90;;;;;;5049481;28;20885;-68
2022/11/16 11:49:11;;;;;;;1999.90;999.90;;;7.40;99.90;;;;;;5052171;28;20520;-67
2022/11/16 11:51:41;;;;;;;1999.90;999.90;;;7.40;99.90;;;;;;5054939;28;20466;-67
2022/11/16 11:54:16;;;;;;;1999.90;999.90;;;7.40;99.90;;;;;;5056997;28;20442;-67
2022/11/16 11:56:43;;;;;;;1999.90;999.90;;;7.50;99.90;;;;;;5053233;28;20436;-67
2022/11/16 11:59:15;;;;;;;1999.90;999.90;;;7.40;99.90;;;;;;5054578;28;20860;-67
2022/11/16 12:02:14;;;;;;;1999.90;999.90;;;7.50;99.90;;;;;;5052935;28;20504;-67
2022/11/16 12:05:05;;;;;;;1999.90;999.90;;;7.40;99.90;;;;;;5033439;28;20431;-67
2022/11/16 12:08:07;;;;;;;1999.90;999.90;;;7.50;99.90;;;;;;5033743;28;20439;-68
2022/11/16 12:10:41;;;;;;;1999.90;999.90;;;7.40;99.90;;;;;;5034708;28;20549;-67
2022/11/16 12:13:24;;;;;;;1999.90;999.90;;;7.50;99.90;;;;;;5035157;28;20454;-67
2022/11/16 12:16:05;;;;;;;1999.90;999.90;;;7.40;99.90;;;;;;5044536;28;20458;-67
2022/11/16 12:19:13;;;;;;;1999.90;999.90;;;7.40;99.90;;;;;;5046779;28;20485;-67
2022/11/16 12:21:49;;;;;;;1999.90;999.90;;;7.40;99.90;;;;;;5053236;28;20548;-67
2022/11/16 12:24:50;;;;;;;1999.90;999.90;;;7.40;99.90;;;;;;5052419;28;20812;-67
2022/11/16 12:27:28;;;;;;;1999.90;999.90;;;7.40;99.90;;;;;;5046603;28;20458;-67
2022/11/16 12:30:03;;;;;;;1999.90;999.90;;;7.50;99.90;;;;;;5041529;28;20487;-67
2022/11/16 12:33:02;;;;;;;1999.90;999.90;;;7.40;99.90;;;;;;5039358;28;20450;-67
2022/11/16 12:35:44;;;;;;;1999.90;999.90;;;7.40;99.90;;;;;;5022293;28;20465;-67
2022/11/16 12:38:26;;;;;;;1999.90;999.90;;;7.40;99.90;;;;;;5047694;28;20459;-67
2022/11/16 12:41:07;;;;;;;1999.90;999.90;;;7.50;99.90;;;;;;5041016;28;20568;-67
2022/11/16 12:43:42;;;;;;;1999.90;999.90;;;7.40;99.90;;;;;;5046410;28;20438;-68
2022/11/16 12:46:18;;;;;;;1999.90;999.90;;;7.40;99.90;;;;;;5042303;28;20489;-67
2022/11/16 12:49:23;;;;;;;1999.90;999.90;;;7.40;99.90;;;;;;5047282;28;20481;-67
2022/11/16 12:52:05;;;;;;;1999.90;999.90;;;7.40;99.90;;;;;;5047804;28;20490;-67
2022/11/16 12:54:56;;;;;;;1999.90;999.90;;;7.40;99.90;;;;;;5044638;28;20462;-67
2022/11/16 12:57:34;;;;;;;1999.90;999.90;;;7.40;99.90;;;;;;5053715;28;20453;-67
2022/11/16 13:00:06;;;;;;;1999.90;999.90;;;7.40;99.90;;;;;;5053164;28;20585;-67
2022/11/16 13:02:50;;;;;;;1999.90;999.90;;;7.40;99.90;;;;;;5053350;28;20912;-67